Terminal Aerodrome Forecast
Issued by NWS

Home | Current Version | Previous Version | Text Only | Print | Product List | Glossary On
Versions: 1 2 3 4 5 6 7 8 9 10 11 12
000
FTUS44 KOUN 282328
TAFHBR
TAF
KHBR 282328Z 2900/2924 11006KT P6SM FEW070
      TEMPO 2908/2912 35025G35KT 3SM -TSRA OVC040CB
     FM291400 18009KT P6SM SCT070=

USA.gov is the U.S. government's official web portal to all federal, state and local government web resources and services.